Windsor, Indiana
Current Conditions -  °F | °C
As of 2:53 PM on Monday 24 Nov 2014 (Local Time) from KMIE Reporting Station
Overcast Overcast  
Wind Chill: 30°   Ceiling: 2300
Heat Index: 40°   Visibility: 10mi
Dew Point: 32°   Wind: 20mph
Humidity: 73%   Direction: 250°WSW
Pressure: 29.58"   Gusts: 32mph
Location:  40.2107°N, 85.182°W
Report Text: KMIE 241953Z 25017G28KT 10SM OVC023 04/00 A2958 RMK AO2 PK WND 23038/1910 SLP013 T00440000
Loading
Personal Weather Stations






























Interactive Weather Map New forecast layout! Learn more

10-Day Weather Forecast

Advertisements
Track Severe Weather on mobile